createdAt,value
2022-12-16T00:00:27.285Z,9.667957
2022-12-16T00:01:27.266Z,9.667989
2022-12-16T00:02:27.297Z,9.667943
2022-12-16T00:03:27.474Z,9.667969
2022-12-16T00:04:27.257Z,9.668028
2022-12-16T00:05:27.242Z,9.668029
2022-12-16T00:06:27.218Z,9.668009
2022-12-16T00:07:27.205Z,9.668027
2022-12-16T00:08:27.195Z,9.667960
2022-12-16T00:09:27.206Z,9.668006
2022-12-16T00:10:27.178Z,9.668062
2022-12-16T00:11:28.083Z,9.668039
2022-12-16T00:12:27.165Z,9.667941
2022-12-16T00:13:27.163Z,9.667941
2022-12-16T00:14:27.163Z,9.668000
2022-12-16T00:15:27.148Z,9.667967
2022-12-16T00:16:59.062Z,9.667991
2022-12-16T00:17:27.122Z,9.667923
2022-12-16T00:18:27.139Z,9.667969
2022-12-16T00:19:27.117Z,9.667968
2022-12-16T00:20:27.124Z,9.667967
2022-12-16T00:21:27.107Z,9.667968
2022-12-16T00:22:27.091Z,9.668066
2022-12-16T00:23:27.094Z,9.667992
2022-12-16T00:24:27.101Z,9.668033
2022-12-16T00:25:27.078Z,9.667996
2022-12-16T00:26:27.081Z,9.668029
2022-12-16T00:27:27.075Z,9.668003
2022-12-16T00:28:27.054Z,9.667991
2022-12-16T00:29:27.046Z,9.667924
2022-12-16T00:30:27.038Z,9.667970
2022-12-16T00:31:27.088Z,9.668025
2022-12-16T00:32:27.055Z,9.667912
2022-12-16T00:33:27.046Z,9.667964
2022-12-16T00:34:27.015Z,9.668015
2022-12-16T00:35:27.009Z,9.667946
2022-12-16T00:36:27.015Z,9.668031
2022-12-16T00:37:27.025Z,9.667988
2022-12-16T00:38:26.982Z,9.667911
2022-12-16T00:39:27.012Z,9.667940
2022-12-16T00:40:26.994Z,9.667969
2022-12-16T00:41:26.969Z,9.667892
2022-12-16T00:42:26.974Z,9.667979
2022-12-16T00:43:26.968Z,9.667931
2022-12-16T00:44:26.933Z,9.667948
2022-12-16T00:45:26.980Z,9.667976
2022-12-16T00:46:26.981Z,9.667990
2022-12-16T00:47:26.945Z,9.667916
2022-12-16T00:48:26.912Z,9.667935
2022-12-16T00:49:26.909Z,9.667931
2022-12-16T00:50:26.900Z,9.667920
2022-12-16T00:51:26.893Z,9.667964
2022-12-16T00:52:26.883Z,9.667864
2022-12-16T00:53:26.897Z,9.667906
2022-12-16T00:54:26.880Z,9.667899
2022-12-16T00:55:26.887Z,9.667879
2022-12-16T00:56:26.867Z,9.667957
2022-12-16T00:57:26.854Z,9.667991
2022-12-16T00:58:26.847Z,9.668006
2022-12-16T00:59:26.850Z,9.668055
2022-12-16T01:00:26.831Z,9.668012
2022-12-16T01:01:27.958Z,9.667996
2022-12-16T01:02:26.980Z,9.668023
2022-12-16T01:03:26.873Z,9.667976
2022-12-16T01:04:26.814Z,9.667950
2022-12-16T01:05:27.041Z,9.667856
2022-12-16T01:06:26.795Z,9.667843
2022-12-16T01:07:26.779Z,9.667896
2022-12-16T01:08:26.830Z,9.667954
2022-12-16T01:09:26.775Z,9.667872
2022-12-16T01:10:26.755Z,9.667964
2022-12-16T01:11:26.750Z,9.667891
2022-12-16T01:12:26.746Z,9.667924
2022-12-16T01:13:26.734Z,9.668002
2022-12-16T01:14:26.769Z,9.667952
2022-12-16T01:15:26.715Z,9.667999
2022-12-16T01:16:26.754Z,9.667972
2022-12-16T01:17:26.697Z,9.667914
2022-12-16T01:18:26.716Z,9.667932
2022-12-16T01:19:26.716Z,9.667938
2022-12-16T01:20:26.691Z,9.667967
2022-12-16T01:21:26.690Z,9.667950
2022-12-16T01:22:26.690Z,9.668020
2022-12-16T01:23:26.677Z,9.668004
2022-12-16T01:24:26.673Z,9.667923
2022-12-16T01:25:26.667Z,9.667950
2022-12-16T01:26:26.655Z,9.667949
2022-12-16T01:27:26.641Z,9.668038
2022-12-16T01:28:26.650Z,9.667994
2022-12-16T01:29:26.619Z,9.667929
2022-12-16T01:30:26.611Z,9.667992
2022-12-16T01:31:26.680Z,9.668000
2022-12-16T01:32:26.600Z,9.667999
2022-12-16T01:33:26.608Z,9.667982
2022-12-16T01:34:26.577Z,9.667993
2022-12-16T01:35:56.621Z,9.668017
2022-12-16T01:36:28.583Z,9.668024
2022-12-16T01:37:26.561Z,9.668020
2022-12-16T01:38:26.596Z,9.668039
2022-12-16T01:39:26.558Z,9.668038
2022-12-16T01:40:26.536Z,9.668055
2022-12-16T01:41:26.550Z,9.668041
2022-12-16T01:42:26.519Z,9.668074
2022-12-16T01:43:26.552Z,9.668039
2022-12-16T01:44:26.520Z,9.668021
2022-12-16T01:45:26.543Z,9.668031
2022-12-16T01:46:26.641Z,9.668001
2022-12-16T01:47:26.493Z,9.668002
2022-12-16T01:48:26.513Z,9.667987
2022-12-16T01:49:26.494Z,9.668126
2022-12-16T01:50:26.479Z,9.668111
2022-12-16T01:51:26.474Z,9.668039
2022-12-16T01:52:26.462Z,9.668137
2022-12-16T01:53:26.441Z,9.668028
2022-12-16T01:54:26.460Z,9.668005
2022-12-16T01:55:26.432Z,9.668000
2022-12-16T01:56:26.458Z,9.667963
2022-12-16T01:57:26.425Z,9.667986
2022-12-16T01:58:26.416Z,9.668004
2022-12-16T01:59:26.437Z,9.667966
2022-12-16T02:00:26.667Z,9.668019
2022-12-16T02:01:26.544Z,9.668055
2022-12-16T02:02:26.500Z,9.667993
2022-12-16T02:03:26.485Z,9.667985
2022-12-16T02:04:26.386Z,9.667991
2022-12-16T02:05:26.366Z,9.667971
2022-12-16T02:06:26.380Z,9.667999
2022-12-16T02:07:26.378Z,9.667997
2022-12-16T02:08:26.342Z,9.667976
2022-12-16T02:09:27.107Z,9.668030
2022-12-16T02:10:26.331Z,9.667994
2022-12-16T02:11:26.329Z,9.667977
2022-12-16T02:12:26.345Z,9.667994
2022-12-16T02:13:26.309Z,9.667988
2022-12-16T02:14:26.296Z,9.668011
2022-12-16T02:15:26.292Z,9.667987
2022-12-16T02:16:26.329Z,9.667975
2022-12-16T02:17:26.322Z,9.667990
2022-12-16T02:18:26.288Z,9.667957
2022-12-16T02:19:26.298Z,9.667944
2022-12-16T02:20:26.268Z,9.667958
2022-12-16T02:21:26.247Z,9.668000
2022-12-16T02:22:26.243Z,9.668036
2022-12-16T02:23:26.268Z,9.668017
2022-12-16T02:24:26.241Z,9.667964
2022-12-16T02:25:26.215Z,9.667932
2022-12-16T02:26:26.218Z,9.667974
2022-12-16T02:27:26.203Z,9.667969
2022-12-16T02:28:26.199Z,9.667979
2022-12-16T02:29:26.201Z,9.667969
2022-12-16T02:30:26.234Z,9.668001
2022-12-16T02:31:27.249Z,9.667858
2022-12-16T02:32:58.074Z,9.667922
2022-12-16T02:33:26.173Z,9.667933
2022-12-16T02:34:26.158Z,9.667970
2022-12-16T02:35:26.156Z,9.668007
2022-12-16T02:36:26.135Z,9.668110
2022-12-16T02:37:26.151Z,9.667931
2022-12-16T02:38:26.139Z,9.667980
2022-12-16T02:39:26.171Z,9.668002
2022-12-16T02:40:26.113Z,9.668009
2022-12-16T02:41:26.105Z,9.667971
2022-12-16T02:42:26.122Z,9.667892
2022-12-16T02:43:26.107Z,9.667875
2022-12-16T02:44:26.092Z,9.668006
2022-12-16T02:45:26.118Z,9.668051
2022-12-16T02:46:26.080Z,9.668017
2022-12-16T02:47:26.215Z,9.668102
2022-12-16T02:48:26.060Z,9.668068
2022-12-16T02:49:26.047Z,9.667898
2022-12-16T02:50:26.049Z,9.667958
2022-12-16T02:51:26.032Z,9.667958
2022-12-16T02:52:26.154Z,9.668018
2022-12-16T02:53:26.025Z,9.667977
2022-12-16T02:54:26.008Z,9.667969
2022-12-16T02:55:26.009Z,9.668012
2022-12-16T02:56:26.013Z,9.668007
2022-12-16T02:57:25.990Z,9.668025
2022-12-16T02:58:25.986Z,9.667981
2022-12-16T02:59:25.965Z,9.667918
2022-12-16T03:00:25.973Z,9.667924
2022-12-16T03:01:26.125Z,9.667979
2022-12-16T03:02:26.092Z,9.668027
2022-12-16T03:03:26.520Z,9.668016
2022-12-16T03:04:25.965Z,9.667963
2022-12-16T03:05:25.912Z,9.667975
2022-12-16T03:06:25.923Z,9.667916
2022-12-16T03:07:25.907Z,9.667948
2022-12-16T03:08:25.928Z,9.667959
2022-12-16T03:09:25.923Z,9.667993
2022-12-16T03:10:25.899Z,9.668000
2022-12-16T03:11:25.870Z,9.667994
2022-12-16T03:12:25.887Z,9.668020
2022-12-16T03:13:25.873Z,9.668010
2022-12-16T03:14:25.851Z,9.667971
2022-12-16T03:15:25.860Z,9.667948
2022-12-16T03:16:25.899Z,9.667968
2022-12-16T03:17:25.830Z,9.667950
2022-12-16T03:18:25.845Z,9.667959
2022-12-16T03:19:25.840Z,9.667945
2022-12-16T03:20:25.830Z,9.668023
2022-12-16T03:21:25.801Z,9.667941
2022-12-16T03:22:25.804Z,9.667933
2022-12-16T03:23:25.803Z,9.667957
2022-12-16T03:24:25.788Z,9.668034
2022-12-16T03:25:25.812Z,9.667954
2022-12-16T03:26:25.790Z,9.667984
2022-12-16T03:27:25.770Z,9.667990
2022-12-16T03:28:25.748Z,9.667994
2022-12-16T03:29:25.747Z,9.667994
2022-12-16T03:30:57.686Z,9.667958
2022-12-16T03:31:25.759Z,9.667965
2022-12-16T03:32:25.735Z,9.668005
2022-12-16T03:33:25.721Z,9.668015
2022-12-16T03:34:26.587Z,9.668015
2022-12-16T03:35:25.724Z,9.668016
2022-12-16T03:36:25.725Z,9.667978
2022-12-16T03:37:25.684Z,9.667959
2022-12-16T03:38:25.699Z,9.667903
2022-12-16T03:39:25.693Z,9.667958
2022-12-16T03:40:25.686Z,9.667925
2022-12-16T03:41:26.679Z,9.667993
2022-12-16T03:42:26.738Z,9.668059
2022-12-16T03:43:25.752Z,9.667975
2022-12-16T03:44:25.669Z,9.667967
2022-12-16T03:45:25.639Z,9.668027
2022-12-16T03:46:25.730Z,9.667995
2022-12-16T03:47:25.650Z,9.667960
2022-12-16T04:05:21.010Z,9.668148
2022-12-16T04:06:21.002Z,9.668026
2022-12-16T04:07:21.035Z,9.667993
2022-12-16T04:08:21.009Z,9.668047
2022-12-16T04:09:21.022Z,9.668084
2022-12-16T04:10:20.987Z,9.667986
2022-12-16T04:11:20.996Z,9.667980
2022-12-16T04:12:20.973Z,9.667969
2022-12-16T04:13:20.963Z,9.667990
2022-12-16T04:14:20.954Z,9.667989
2022-12-16T04:15:20.960Z,9.668021
2022-12-16T04:16:21.121Z,9.668024
2022-12-16T04:17:20.931Z,9.668009
2022-12-16T04:18:21.603Z,9.668002
2022-12-16T04:19:20.924Z,9.667964
2022-12-16T04:20:20.914Z,9.667989
2022-12-16T04:21:20.930Z,9.667943
2022-12-16T04:22:20.905Z,9.667921
2022-12-16T04:23:20.900Z,9.667949
2022-12-16T04:24:20.898Z,9.667990
2022-12-16T04:25:20.883Z,9.667939
2022-12-16T04:26:20.865Z,9.667952
2022-12-16T04:27:20.875Z,9.667956
2022-12-16T04:28:20.862Z,9.667961
2022-12-16T04:29:20.860Z,9.668015
2022-12-16T04:30:20.844Z,9.667994
2022-12-16T04:31:20.903Z,9.668084
2022-12-16T04:32:20.881Z,9.668034
2022-12-16T04:33:20.857Z,9.668019
2022-12-16T04:34:20.821Z,9.668062
2022-12-16T04:35:20.838Z,9.668026
2022-12-16T04:36:20.803Z,9.667982
2022-12-16T04:37:20.795Z,9.667937
2022-12-16T04:38:20.820Z,9.667997
2022-12-16T04:39:20.776Z,9.668041
2022-12-16T04:40:20.770Z,9.667955
2022-12-16T04:41:20.774Z,9.667996
2022-12-16T04:42:21.618Z,9.667999
2022-12-16T04:43:20.745Z,9.668054
2022-12-16T04:44:20.751Z,9.667972
2022-12-16T04:45:20.724Z,9.668051
2022-12-16T04:46:21.665Z,9.667994
2022-12-16T04:47:20.742Z,9.667926
2022-12-16T04:48:20.711Z,9.667962
2022-12-16T04:49:20.730Z,9.668021
2022-12-16T04:50:20.698Z,9.667974
2022-12-16T04:51:20.687Z,9.668026
2022-12-16T04:52:20.690Z,9.667987
2022-12-16T04:53:20.679Z,9.667988
2022-12-16T04:54:20.673Z,9.667987
2022-12-16T04:55:20.663Z,9.668014
2022-12-16T04:56:20.667Z,9.667981
2022-12-16T04:57:20.644Z,9.667971
2022-12-16T04:58:20.632Z,9.667972
2022-12-16T04:59:20.641Z,9.667991
2022-12-16T05:00:20.635Z,9.667999
2022-12-16T05:01:20.738Z,9.667951
2022-12-16T05:02:20.803Z,9.667994
2022-12-16T05:03:20.630Z,9.668030
2022-12-16T05:04:20.589Z,9.668055
2022-12-16T05:05:20.604Z,9.668042
2022-12-16T05:06:20.655Z,9.667962
2022-12-16T05:07:20.575Z,9.667972
2022-12-16T05:08:20.579Z,9.667971
2022-12-16T05:09:20.559Z,9.667940
2022-12-16T05:10:20.566Z,9.667916
2022-12-16T05:11:20.568Z,9.667968
2022-12-16T05:12:20.602Z,9.667980
2022-12-16T05:13:20.544Z,9.668016
2022-12-16T05:14:20.543Z,9.667957
2022-12-16T05:15:20.513Z,9.667912
2022-12-16T05:16:20.555Z,9.667989
2022-12-16T05:17:20.514Z,9.667996
2022-12-16T05:18:21.137Z,9.668053
2022-12-16T05:19:20.512Z,9.668090
2022-12-16T05:20:20.492Z,9.668133
2022-12-16T05:21:20.492Z,9.668044
2022-12-16T05:22:20.534Z,9.668056
2022-12-16T05:23:20.478Z,9.668047
2022-12-16T05:24:20.451Z,9.668027
2022-12-16T05:25:20.435Z,9.668040
2022-12-16T05:26:20.451Z,9.668053
2022-12-16T05:27:20.428Z,9.668066
2022-12-16T05:28:20.483Z,9.668064
2022-12-16T05:29:20.411Z,9.668034
2022-12-16T05:30:20.415Z,9.668007
2022-12-16T05:31:20.479Z,9.668035
2022-12-16T05:32:21.108Z,9.668040
2022-12-16T05:33:20.409Z,9.668035
2022-12-16T05:34:20.387Z,9.668085
2022-12-16T05:35:20.376Z,9.668091
2022-12-16T05:36:20.354Z,9.668022
2022-12-16T05:37:20.376Z,9.668008
2022-12-16T05:38:21.112Z,9.668027
2022-12-16T05:39:20.366Z,9.668049
2022-12-16T05:40:20.356Z,9.668008
2022-12-16T05:41:20.344Z,9.668045
2022-12-16T05:42:20.320Z,9.668016
2022-12-16T05:43:20.324Z,9.668036
2022-12-16T05:44:20.325Z,9.667996
2022-12-16T05:45:20.314Z,9.667994
2022-12-16T05:46:20.380Z,9.668033
2022-12-16T05:47:20.376Z,9.668036
2022-12-16T05:48:20.280Z,9.668015
2022-12-16T05:49:20.289Z,9.668041
2022-12-16T05:50:20.258Z,9.668072
2022-12-16T05:51:20.280Z,9.667994
2022-12-16T05:52:20.240Z,9.668024
2022-12-16T05:53:20.267Z,9.668060
2022-12-16T05:54:20.226Z,9.668027
2022-12-16T05:55:21.031Z,9.667974
2022-12-16T05:56:20.231Z,9.667966
2022-12-16T05:57:20.233Z,9.667986
2022-12-16T05:58:20.204Z,9.667991
2022-12-16T05:59:20.195Z,9.668009
2022-12-16T06:00:20.212Z,9.668037
2022-12-16T06:01:20.227Z,9.668011
2022-12-16T06:02:20.384Z,9.668011
2022-12-16T06:03:20.251Z,9.668010
2022-12-16T06:04:20.294Z,9.667995
2022-12-16T06:05:20.176Z,9.668004
2022-12-16T06:06:20.147Z,9.668007
2022-12-16T06:07:20.165Z,9.667993
2022-12-16T06:08:20.125Z,9.667994
2022-12-16T06:09:20.122Z,9.668032
2022-12-16T06:10:20.105Z,9.668041
2022-12-16T06:11:20.160Z,9.668011
2022-12-16T06:12:20.093Z,9.667999
2022-12-16T06:13:20.104Z,9.668035
2022-12-16T06:14:20.080Z,9.668011
2022-12-16T06:15:52.055Z,9.667992
2022-12-16T06:16:20.093Z,9.667964
2022-12-16T06:17:20.055Z,9.667993
2022-12-16T06:18:20.073Z,9.668030
2022-12-16T06:19:20.056Z,9.668002
2022-12-16T06:20:20.103Z,9.668011
2022-12-16T06:21:20.035Z,9.668036
2022-12-16T06:22:20.031Z,9.668013
2022-12-16T06:23:24.124Z,9.668041
2022-12-16T06:24:22.035Z,9.668040
2022-12-16T06:25:19.994Z,9.668023
2022-12-16T06:26:19.996Z,9.667987
2022-12-16T06:27:19.984Z,9.667962
2022-12-16T06:28:19.996Z,9.668039
2022-12-16T06:29:19.966Z,9.667992
2022-12-16T06:30:19.976Z,9.667954
2022-12-16T06:31:19.970Z,9.668015
2022-12-16T06:32:19.999Z,9.668012
2022-12-16T06:33:19.938Z,9.667983
2022-12-16T06:34:19.944Z,9.668003
2022-12-16T06:35:19.917Z,9.667994
2022-12-16T06:36:19.916Z,9.668000
2022-12-16T06:37:19.913Z,9.667986
2022-12-16T06:38:19.904Z,9.667979
2022-12-16T06:39:19.908Z,9.667974
2022-12-16T06:40:19.906Z,9.667963
2022-12-16T06:41:19.892Z,9.667995
2022-12-16T06:42:19.863Z,9.668011
2022-12-16T06:43:19.897Z,9.668044
2022-12-16T06:44:19.858Z,9.668111
2022-12-16T06:45:19.863Z,9.668072
2022-12-16T06:46:19.929Z,9.668093
2022-12-16T06:47:19.859Z,9.668080
2022-12-16T06:48:19.823Z,9.668081
2022-12-16T06:49:19.824Z,9.668073
2022-12-16T06:50:19.821Z,9.668053
2022-12-16T06:51:19.812Z,9.668104
2022-12-16T06:52:19.799Z,9.668158
2022-12-16T06:53:19.773Z,9.668130
2022-12-16T06:54:19.772Z,9.668125
2022-12-16T06:55:19.770Z,9.668105
2022-12-16T06:56:19.790Z,9.668133
2022-12-16T06:57:19.756Z,9.668121
2022-12-16T06:58:19.771Z,9.668082
2022-12-16T06:59:19.740Z,9.668100
2022-12-16T07:00:19.743Z,9.668089
2022-12-16T07:01:19.823Z,9.668084
2022-12-16T07:02:19.882Z,9.668086
2022-12-16T07:03:19.754Z,9.668064
2022-12-16T07:04:19.834Z,9.668013
2022-12-16T07:05:19.742Z,9.668056
2022-12-16T07:06:19.854Z,9.668045
2022-12-16T07:07:19.843Z,9.668056
2022-12-16T07:08:19.805Z,9.668100
2022-12-16T07:09:19.681Z,9.668055
2022-12-16T07:10:19.690Z,9.668086
2022-12-16T07:11:19.651Z,9.668087
2022-12-16T07:12:19.642Z,9.668076
2022-12-16T07:13:19.653Z,9.668085
2022-12-16T07:14:19.645Z,9.668058
2022-12-16T07:15:19.616Z,9.668019
2022-12-16T07:16:19.611Z,9.668072
2022-12-16T07:17:19.607Z,9.668062
2022-12-16T07:18:19.595Z,9.668078
2022-12-16T07:19:20.609Z,9.668073
2022-12-16T07:20:19.577Z,9.668080
2022-12-16T07:21:19.575Z,9.668112
2022-12-16T07:22:19.566Z,9.668123
2022-12-16T07:23:20.153Z,9.668069
2022-12-16T07:24:20.579Z,9.668097
2022-12-16T07:25:19.531Z,9.668064
2022-12-16T07:26:20.583Z,9.668036
2022-12-16T07:27:19.524Z,9.668113
2022-12-16T07:28:19.522Z,9.668119
2022-12-16T07:29:19.545Z,9.668039
2022-12-16T07:30:19.700Z,9.668052
2022-12-16T07:31:19.583Z,9.668113
2022-12-16T07:32:19.503Z,9.668048
2022-12-16T07:33:19.476Z,9.668069
2022-12-16T07:34:19.490Z,9.668077
2022-12-16T07:35:19.495Z,9.668059
2022-12-16T07:36:19.493Z,9.668046
2022-12-16T07:37:19.446Z,9.668061
2022-12-16T07:38:19.443Z,9.668082
2022-12-16T07:39:19.470Z,9.668119
2022-12-16T07:40:19.413Z,9.668116
2022-12-16T07:41:19.412Z,9.668096
2022-12-16T07:42:19.418Z,9.668046
2022-12-16T07:43:19.417Z,9.668069
2022-12-16T07:44:19.403Z,9.668070
2022-12-16T07:45:19.407Z,9.668079
2022-12-16T07:46:19.454Z,9.668044
2022-12-16T07:47:19.387Z,9.668036
2022-12-16T07:48:19.378Z,9.668062
2022-12-16T07:49:19.375Z,9.668033
2022-12-16T07:50:19.352Z,9.668035
2022-12-16T07:51:19.359Z,9.668029
2022-12-16T07:52:19.371Z,9.668034
2022-12-16T07:53:19.322Z,9.668067
2022-12-16T07:54:19.331Z,9.668109
2022-12-16T07:55:19.318Z,9.668095
2022-12-16T07:56:19.395Z,9.668061
2022-12-16T07:57:19.299Z,9.668066
2022-12-16T07:58:19.280Z,9.668094
2022-12-16T07:59:19.272Z,9.668096
2022-12-16T08:00:19.280Z,9.668069
2022-12-16T08:01:19.380Z,9.668091
2022-12-16T08:02:19.412Z,9.668070
2022-12-16T08:03:19.298Z,9.668043
2022-12-16T08:04:19.238Z,9.668046
2022-12-16T08:05:19.237Z,9.668022
2022-12-16T08:06:19.224Z,9.668076
2022-12-16T08:07:20.124Z,9.668097
2022-12-16T08:08:20.221Z,9.668094
2022-12-16T08:09:19.198Z,9.668152
2022-12-16T08:10:19.204Z,9.668114
2022-12-16T08:11:19.187Z,9.668136
2022-12-16T08:12:19.179Z,9.668054
2022-12-16T08:13:23.824Z,9.668131
2022-12-16T08:14:21.158Z,9.668099
2022-12-16T08:15:19.175Z,9.668097
2022-12-16T08:16:19.216Z,9.668109
2022-12-16T08:17:19.192Z,9.668090
2022-12-16T08:18:19.137Z,9.668096
2022-12-16T08:19:19.148Z,9.668098
2022-12-16T08:20:19.131Z,9.668094
2022-12-16T08:21:19.123Z,9.668067
2022-12-16T08:22:19.099Z,9.668059
2022-12-16T08:23:19.104Z,9.668076
2022-12-16T08:24:19.110Z,9.668101
2022-12-16T08:25:19.083Z,9.668058
2022-12-16T08:26:19.110Z,9.668082
2022-12-16T08:27:19.068Z,9.668056
2022-12-16T08:28:19.076Z,9.668059
2022-12-16T08:29:45.649Z,9.668087
2022-12-16T08:30:21.072Z,9.668065
2022-12-16T08:31:19.163Z,9.668082
2022-12-16T08:32:19.036Z,9.668032
2022-12-16T08:33:19.940Z,9.668022
2022-12-16T08:34:20.021Z,9.668079
2022-12-16T08:35:19.059Z,9.668069
2022-12-16T08:36:19.011Z,9.668089
2022-12-16T08:37:18.993Z,9.668073
2022-12-16T08:38:18.995Z,9.668061
2022-12-16T08:39:18.986Z,9.668027
2022-12-16T08:40:34.884Z,9.668059
2022-12-16T08:41:21.692Z,9.668063
2022-12-16T08:42:18.970Z,9.668054
2022-12-16T08:43:18.957Z,9.668059
2022-12-16T08:44:18.954Z,9.668063
2022-12-16T08:45:18.935Z,9.668024
2022-12-16T08:46:19.003Z,9.668020
2022-12-16T08:47:18.923Z,9.668024
2022-12-16T08:48:18.904Z,9.668052
2022-12-16T08:49:18.934Z,9.667997
2022-12-16T08:50:18.898Z,9.668039
2022-12-16T08:51:18.900Z,9.668040
2022-12-16T08:52:18.911Z,9.668112
2022-12-16T08:53:18.901Z,9.668051
2022-12-16T08:54:18.886Z,9.668102
2022-12-16T08:55:22.421Z,9.668064
2022-12-16T08:56:19.856Z,9.668028
2022-12-16T08:57:18.848Z,9.668030
2022-12-16T08:58:18.901Z,9.668034
2022-12-16T08:59:18.850Z,9.668052
2022-12-16T09:00:18.847Z,9.668043
2022-12-16T09:01:18.928Z,9.668030
2022-12-16T09:02:19.265Z,9.668012
2022-12-16T09:03:19.047Z,9.668042
2022-12-16T09:04:18.824Z,9.668051
2022-12-16T09:05:18.812Z,9.668005
2022-12-16T09:06:18.850Z,9.668013
2022-12-16T09:07:18.791Z,9.668017
2022-12-16T09:08:18.759Z,9.668011
2022-12-16T09:09:18.766Z,9.667999
2022-12-16T09:10:18.771Z,9.667973
2022-12-16T09:11:18.764Z,9.668017
2022-12-16T09:12:18.782Z,9.668034
2022-12-16T09:13:18.722Z,9.668056
2022-12-16T09:14:18.719Z,9.668027
2022-12-16T09:15:18.736Z,9.668039
2022-12-16T09:16:19.847Z,9.668024
2022-12-16T09:17:19.702Z,9.668041
2022-12-16T09:18:18.727Z,9.668019
2022-12-16T09:19:18.677Z,9.668013
2022-12-16T09:20:18.672Z,9.668041
2022-12-16T09:21:18.717Z,9.668037
2022-12-16T09:22:18.683Z,9.667996
2022-12-16T09:23:18.657Z,9.668038
2022-12-16T09:24:18.673Z,9.668029
2022-12-16T09:25:18.631Z,9.668046
2022-12-16T09:26:18.691Z,9.668050
2022-12-16T09:27:20.566Z,9.668065
2022-12-16T09:28:18.636Z,9.668057
2022-12-16T09:29:18.618Z,9.668007
2022-12-16T09:30:18.622Z,9.668019
2022-12-16T09:31:50.496Z,9.668058
2022-12-16T09:32:18.657Z,9.668069
2022-12-16T09:33:50.519Z,9.667933
2022-12-16T09:34:50.510Z,9.668045
2022-12-16T09:35:18.580Z,9.668040
2022-12-16T09:36:50.511Z,9.667980
2022-12-16T09:37:50.474Z,9.668052
2022-12-16T09:38:19.336Z,9.668001
2022-12-16T09:39:50.465Z,9.668013
2022-12-16T09:40:18.528Z,9.668074
2022-12-16T09:41:18.522Z,9.668084
2022-12-16T09:42:50.422Z,9.668048
2022-12-16T09:43:18.519Z,9.668073
2022-12-16T09:44:50.456Z,9.668040
2022-12-16T09:45:18.511Z,9.668056
2022-12-16T09:46:18.559Z,9.668059
2022-12-16T09:47:50.402Z,9.668034
2022-12-16T09:48:18.482Z,9.668028
2022-12-16T09:49:18.461Z,9.668027
2022-12-16T09:50:18.476Z,9.668024
2022-12-16T09:51:18.444Z,9.668046
2022-12-16T09:52:18.798Z,9.668056
2022-12-16T09:53:50.345Z,9.668082
2022-12-16T09:54:18.433Z,9.668054
2022-12-16T09:55:50.370Z,9.668049
2022-12-16T09:56:18.423Z,9.667964
2022-12-16T09:57:18.514Z,9.667961
2022-12-16T09:58:18.422Z,9.668016
2022-12-16T09:59:18.390Z,9.667985
2022-12-16T10:00:18.382Z,9.667974
2022-12-16T10:01:18.531Z,9.667931
2022-12-16T10:02:18.969Z,9.667937
2022-12-16T10:03:18.613Z,9.667981
2022-12-16T10:04:18.379Z,9.667999
2022-12-16T10:05:18.332Z,9.667974
2022-12-16T10:06:18.354Z,9.668021
2022-12-16T10:07:18.345Z,9.667996
2022-12-16T10:08:19.242Z,9.668026
2022-12-16T10:09:19.314Z,9.667954
2022-12-16T10:10:18.304Z,9.668057
2022-12-16T10:11:18.312Z,9.668005
2022-12-16T10:12:18.306Z,9.668003
2022-12-16T10:13:18.289Z,9.667992
2022-12-16T10:14:50.186Z,9.668002
2022-12-16T10:15:50.235Z,9.667975
2022-12-16T10:16:50.176Z,9.667896
2022-12-16T10:17:50.175Z,9.667879
2022-12-16T10:18:50.246Z,9.667917
2022-12-16T10:19:18.232Z,9.667843
2022-12-16T10:20:18.219Z,9.667854
2022-12-16T10:21:18.234Z,9.667792
2022-12-16T10:22:18.246Z,9.667774
2022-12-16T10:23:18.200Z,9.667910
2022-12-16T10:24:18.224Z,9.667795
2022-12-16T10:25:24.600Z,9.667864
2022-12-16T10:26:20.185Z,9.667941
2022-12-16T10:27:18.192Z,9.667982
2022-12-16T10:28:18.210Z,9.667887
2022-12-16T10:29:21.121Z,9.667881
2022-12-16T10:30:18.180Z,9.667914
2022-12-16T10:31:18.218Z,9.667970
2022-12-16T10:32:18.131Z,9.667986
2022-12-16T10:33:18.124Z,9.667981
2022-12-16T10:34:18.129Z,9.667970
2022-12-16T10:35:18.236Z,9.667961
2022-12-16T10:36:18.122Z,9.667911
2022-12-16T10:37:20.895Z,9.667918
2022-12-16T10:38:19.086Z,9.667960
2022-12-16T10:39:18.133Z,9.667982
2022-12-16T10:40:18.061Z,9.667967
2022-12-16T10:41:18.178Z,9.667979
2022-12-16T10:42:18.047Z,9.667976
2022-12-16T10:43:22.190Z,9.668006
2022-12-16T10:44:19.064Z,9.667989
2022-12-16T10:45:18.072Z,9.667984
2022-12-16T10:46:18.114Z,9.667978
2022-12-16T10:47:18.032Z,9.667976
2022-12-16T10:48:18.008Z,9.667989
2022-12-16T10:49:18.152Z,9.667964
2022-12-16T10:50:18.122Z,9.667940
2022-12-16T10:51:18.015Z,9.667976
2022-12-16T10:52:18.009Z,9.667970
2022-12-16T10:53:17.986Z,9.667964
2022-12-16T10:54:17.957Z,9.667968
2022-12-16T10:55:17.966Z,9.667974
2022-12-16T10:56:18.012Z,9.668019
2022-12-16T10:57:17.979Z,9.667975
2022-12-16T10:58:18.619Z,9.667986
2022-12-16T10:59:17.956Z,9.667970
2022-12-16T11:00:17.924Z,9.667986
2022-12-16T11:01:18.016Z,9.667976
2022-12-16T11:02:18.291Z,9.668005
2022-12-16T11:03:18.171Z,9.667946
2022-12-16T11:04:18.041Z,9.667931
2022-12-16T11:05:17.884Z,9.667967
2022-12-16T11:06:17.909Z,9.667987
2022-12-16T11:07:17.852Z,9.667967
2022-12-16T11:08:17.860Z,9.667953
2022-12-16T11:09:17.834Z,9.667994
2022-12-16T11:10:21.536Z,9.668004
2022-12-16T11:11:19.825Z,9.668033
2022-12-16T11:12:17.848Z,9.667997
2022-12-16T11:13:17.837Z,9.667984
2022-12-16T11:14:17.841Z,9.667948
2022-12-16T11:15:29.069Z,9.667930
2022-12-16T11:16:19.837Z,9.667995
2022-12-16T11:17:17.801Z,9.668007
2022-12-16T11:18:17.783Z,9.668001
2022-12-16T11:19:17.773Z,9.667942
2022-12-16T11:20:17.781Z,9.667999
2022-12-16T11:21:17.781Z,9.667967
2022-12-16T11:22:17.746Z,9.668001
2022-12-16T11:23:17.730Z,9.667979
2022-12-16T11:24:17.727Z,9.667971
2022-12-16T11:25:17.744Z,9.667963
2022-12-16T11:26:17.751Z,9.667981
2022-12-16T11:27:17.716Z,9.668020
2022-12-16T11:28:17.713Z,9.668028
2022-12-16T11:29:17.701Z,9.668022
2022-12-16T11:30:17.714Z,9.667997
2022-12-16T11:31:17.743Z,9.667982
2022-12-16T11:32:17.715Z,9.667961
2022-12-16T11:33:17.697Z,9.667956
2022-12-16T11:34:17.696Z,9.667988
2022-12-16T11:35:17.640Z,9.667992
2022-12-16T11:36:18.646Z,9.667990
2022-12-16T11:37:21.005Z,9.668031
2022-12-16T11:38:18.635Z,9.667987
2022-12-16T11:39:17.620Z,9.667996
2022-12-16T11:40:17.751Z,9.668011
2022-12-16T11:41:17.603Z,9.667988
2022-12-16T11:42:18.534Z,9.668001
2022-12-16T11:43:17.636Z,9.667994
2022-12-16T11:44:17.625Z,9.667968
2022-12-16T11:45:17.589Z,9.668039
2022-12-16T11:46:17.582Z,9.668031
2022-12-16T11:47:17.551Z,9.668023
2022-12-16T11:48:17.672Z,9.668031
2022-12-16T11:49:23.377Z,9.668011
2022-12-16T11:50:19.559Z,9.668016
2022-12-16T11:51:17.521Z,9.668007
2022-12-16T11:52:37.993Z,9.667969
2022-12-16T11:53:19.538Z,9.667953
2022-12-16T11:54:17.540Z,9.668002
2022-12-16T11:55:18.223Z,9.667978
2022-12-16T11:56:18.536Z,9.667994
2022-12-16T11:57:17.484Z,9.667961
2022-12-16T11:58:17.470Z,9.667971
2022-12-16T11:59:17.503Z,9.667943
2022-12-16T12:00:17.480Z,9.667947
2022-12-16T12:01:17.448Z,9.667929